Time;durP1;ratioP1;P1;durP2;ratioP2;P2;SDS_P1;SDS_P2;PMS_P1;PMS_P2;Temp;Humidity;BMP_temperature;BMP_pressure;BME280_temperature;BME280_humidity;BME280_pressure;Samples;Min_cycle;Max_cycle;Signal;HPM_P1;HPM_P2
2022/12/05 00:00:32;;;;;;;34.55;15.70;;;;;;;-0.20;94.71;95824.09;2041031;29;20503;-62
2022/12/05 00:01:34;;;;;;;36.58;16.48;;;;;;;-0.24;94.54;95821.56;2041866;29;20407;-62
2022/12/05 00:02:35;;;;;;;40.22;18.17;;;;;;;-0.26;94.39;95823.28;2041669;29;20051;-62
2022/12/05 00:03:36;;;;;;;39.08;17.23;;;;;;;-0.25;94.63;95819.00;2041592;29;20055;-62
2022/12/05 00:04:37;;;;;;;36.85;16.88;;;;;;;-0.23;94.12;95825.78;2041816;29;20059;-62
2022/12/05 00:05:39;;;;;;;37.33;16.88;;;;;;;-0.23;94.67;95825.78;2040987;29;20051;-62
2022/12/05 00:06:42;;;;;;;35.90;16.88;;;;;;;-0.33;94.43;95801.19;2041078;29;20404;-62
2022/12/05 00:07:43;;;;;;;38.50;15.90;;;;;;;-0.34;94.47;95801.22;2048083;29;20059;-62
2022/12/05 00:08:44;;;;;;;37.58;16.90;;;;;;;-0.32;94.66;95818.22;2048384;29;20455;-62
2022/12/05 00:09:45;;;;;;;43.10;17.23;;;;;;;-0.33;94.55;95815.69;2041810;29;20048;-62
2022/12/05 00:10:46;;;;;;;43.85;18.23;;;;;;;-0.29;94.65;95820.75;2041169;29;20353;-62
2022/12/05 00:11:47;;;;;;;46.40;19.73;;;;;;;-0.39;94.77;95803.81;2041398;29;20056;-60
2022/12/05 00:12:48;;;;;;;40.35;17.00;;;;;;;-0.35;94.79;95805.47;2041330;29;20066;-60
2022/12/05 00:13:51;;;;;;;40.15;18.92;;;;;;;-0.30;94.74;95811.38;2041552;29;20059;-60
2022/12/05 00:14:52;;;;;;;41.03;17.40;;;;;;;-0.25;94.82;95824.13;2041619;29;20407;-60
2022/12/05 00:15:53;;;;;;;47.95;18.80;;;;;;;-0.26;94.44;95819.88;2041928;29;20036;-60
2022/12/05 00:16:54;;;;;;;42.20;18.27;;;;;;;-0.22;94.50;95819.81;2041039;29;20063;-60
2022/12/05 00:17:55;;;;;;;46.42;18.48;;;;;;;-0.21;94.67;95818.13;2041198;29;20071;-60
2022/12/05 00:18:58;;;;;;;42.78;17.92;;;;;;;-0.18;94.82;95818.13;2041625;29;20036;-59
2022/12/05 00:19:59;;;;;;;41.95;17.80;;;;;;;-0.27;94.77;95824.16;2041612;29;20044;-59
2022/12/05 00:21:00;;;;;;;43.95;18.42;;;;;;;-0.25;94.90;95827.50;2041172;29;20475;-59
2022/12/05 00:22:01;;;;;;;39.70;17.48;;;;;;;-0.28;94.65;95819.88;2040771;29;20062;-59
2022/12/05 00:23:02;;;;;;;46.45;17.92;;;;;;;-0.22;94.93;95837.69;2041918;29;20047;-60
2022/12/05 00:24:05;;;;;;;41.17;18.02;;;;;;;-0.20;94.31;95849.59;2041395;29;20059;-60
2022/12/05 00:25:06;;;;;;;39.88;17.27;;;;;;;-0.26;94.46;95841.13;2041371;29;20052;-60
2022/12/05 00:26:08;;;;;;;39.35;18.05;;;;;;;-0.24;94.66;95839.44;2041474;29;20040;-60
2022/12/05 00:27:09;;;;;;;41.08;17.50;;;;;;;-0.29;95.09;95841.16;2041392;29;20076;-61
2022/12/05 00:28:10;;;;;;;36.17;16.73;;;;;;;-0.30;94.70;95831.78;2040287;29;20058;-62
2022/12/05 00:29:11;;;;;;;44.42;18.70;;;;;;;-0.38;95.04;95825.06;2040195;29;20058;-62
2022/12/05 00:30:12;;;;;;;43.58;17.60;;;;;;;-0.32;94.85;95827.56;2041319;29;20062;-61
2022/12/05 00:31:15;;;;;;;43.90;17.42;;;;;;;-0.30;94.89;95829.25;2041558;29;20046;-61
2022/12/05 00:32:16;;;;;;;39.72;16.95;;;;;;;-0.32;94.64;95830.13;2040959;29;20056;-62
2022/12/05 00:33:17;;;;;;;42.83;18.58;;;;;;;-0.35;95.10;95830.13;2041638;29;20048;-62
2022/12/05 00:34:18;;;;;;;48.28;18.67;;;;;;;-0.34;94.99;95831.84;2041210;29;20142;-60
2022/12/05 00:35:19;;;;;;;45.67;17.88;;;;;;;-0.43;95.13;95812.34;2041553;29;20058;-62
2022/12/05 00:36:25;;;;;;;43.58;18.67;;;;;;;-0.50;95.24;95826.84;2041430;29;20051;-62
2022/12/05 00:37:26;;;;;;;40.95;15.52;;;;;;;-0.39;95.42;95825.94;2040968;29;20070;-61
2022/12/05 00:38:27;;;;;;;43.22;19.42;;;;;;;-0.49;95.71;95814.94;2041680;29;20394;-61
2022/12/05 00:39:28;;;;;;;41.92;17.70;;;;;;;-0.42;95.02;95824.25;2041700;29;20484;-61
2022/12/05 00:40:29;;;;;;;41.55;17.27;;;;;;;-0.46;95.06;95823.41;2040897;29;20059;-62
2022/12/05 00:41:30;;;;;;;37.55;17.85;;;;;;;-0.45;95.46;95803.88;2041550;29;20059;-62
2022/12/05 00:42:31;;;;;;;41.78;18.08;;;;;;;-0.38;94.94;95825.91;2041187;29;20420;-62
2022/12/05 00:43:32;;;;;;;40.90;17.98;;;;;;;-0.34;95.38;95822.50;2042391;29;20075;-62
2022/12/05 00:44:33;;;;;;;46.00;17.65;;;;;;;-0.46;95.22;95825.94;2043213;29;20380;-61
2022/12/05 00:45:35;;;;;;;43.38;18.90;;;;;;;-0.42;95.16;95820.84;2042785;29;20051;-62
2022/12/05 00:46:36;;;;;;;47.47;18.67;;;;;;;-0.42;95.64;95821.69;2042500;29;20064;-63
2022/12/05 00:47:37;;;;;;;42.47;17.83;;;;;;;-0.48;95.97;95826.84;2042390;29;20083;-62
2022/12/05 00:48:38;;;;;;;43.92;17.05;;;;;;;-0.51;95.77;95826.84;2042772;29;20055;-62
2022/12/05 00:49:39;;;;;;;46.83;17.40;;;;;;;-0.54;96.20;95829.44;2043151;29;20058;-62
2022/12/05 00:50:40;;;;;;;40.83;18.23;;;;;;;-0.48;96.29;95832.78;2043162;29;20059;-63
2022/12/05 00:51:42;;;;;;;41.30;17.75;;;;;;;-0.50;95.76;95826.00;2042923;29;20476;-62
2022/12/05 00:52:43;;;;;;;45.47;17.83;;;;;;;-0.42;95.18;95847.22;2042306;29;20056;-62
2022/12/05 00:53:44;;;;;;;46.17;18.42;;;;;;;-0.54;95.15;95829.44;2042681;29;20059;-62
2022/12/05 00:54:45;;;;;;;40.00;16.30;;;;;;;-0.58;95.25;95827.78;2043267;29;20044;-62
2022/12/05 00:55:46;;;;;;;38.05;17.08;;;;;;;-0.51;95.46;95840.47;2043068;29;20063;-61
2022/12/05 00:56:47;;;;;;;44.63;18.75;;;;;;;-0.53;95.09;95841.34;2042753;29;20506;-60
2022/12/05 00:57:48;;;;;;;37.70;16.73;;;;;;;-0.41;95.85;95864.19;2042783;29;20059;-59
2022/12/05 00:58:51;;;;;;;45.42;17.02;;;;;;;-0.47;95.75;95854.88;2042721;29;20066;-59
2022/12/05 00:59:52;;;;;;;45.08;18.73;;;;;;;-0.42;95.63;95869.34;2042557;29;20345;-60
2022/12/05 01:00:53;;;;;;;44.20;18.42;;;;;;;-0.40;95.02;95877.81;2042919;29;20064;-59
2022/12/05 01:01:54;;;;;;;41.72;16.75;;;;;;;-0.42;94.86;95880.38;2043115;29;20047;-59
2022/12/05 01:02:55;;;;;;;45.60;19.25;;;;;;;-0.41;95.06;95876.13;2042548;29;20060;-59
2022/12/05 01:03:56;;;;;;;41.58;17.92;;;;;;;-0.38;95.28;95881.19;2042496;29;20067;-60
2022/12/05 01:04:57;;;;;;;48.85;18.70;;;;;;;-0.45;95.58;95886.34;2042355;29;20059;-59
2022/12/05 01:05:58;;;;;;;49.38;19.50;;;;;;;-0.46;95.88;95894.00;2042263;29;20070;-60
2022/12/05 01:07:00;;;;;;;47.20;20.13;;;;;;;-0.37;95.30;95888.84;2043023;29;20103;-59
2022/12/05 01:08:01;;;;;;;45.08;18.35;;;;;;;-0.38;95.86;95882.03;2042781;29;20047;-59
2022/12/05 01:09:02;;;;;;;53.83;20.73;;;;;;;-0.47;95.81;95867.66;2042794;29;20071;-59
2022/12/05 01:10:04;;;;;;;43.47;18.02;;;;;;;-0.34;95.61;95878.63;2042202;29;20047;-59
2022/12/05 01:11:05;;;;;;;40.17;18.02;;;;;;;-0.34;95.97;95883.72;2042179;29;20046;-59
2022/12/05 01:12:06;;;;;;;44.65;18.55;;;;;;;-0.33;95.65;95890.50;2042427;29;20056;-59
2022/12/05 01:13:07;;;;;;;49.97;19.63;;;;;;;-0.31;95.12;95883.69;2042982;29;20039;-60
2022/12/05 01:14:09;;;;;;;45.15;18.23;;;;;;;-0.35;95.31;95882.00;2042811;29;20500;-60
2022/12/05 01:15:11;;;;;;;42.80;18.45;;;;;;;-0.30;95.63;95884.53;2042649;29;20480;-60
2022/12/05 01:16:28;;;;;;;51.78;19.45;;;;;;;-0.34;95.32;95888.00;2043075;29;20048;-60
2022/12/05 01:17:29;;;;;;;46.75;18.88;;;;;;;-0.33;95.17;95885.41;2042983;29;20051;-60
2022/12/05 01:18:30;;;;;;;45.28;17.65;;;;;;;-0.42;95.57;95874.44;2042864;29;20447;-59
2022/12/05 01:19:31;;;;;;;43.60;18.25;;;;;;;-0.36;95.65;95879.50;2041348;29;20056;-60
2022/12/05 01:20:33;;;;;;;48.92;19.60;;;;;;;-0.37;95.57;95886.31;2041865;29;20056;-60
2022/12/05 01:21:34;;;;;;;43.88;19.25;;;;;;;-0.37;95.37;95893.13;2042959;29;20074;-62
2022/12/05 01:22:35;;;;;;;53.72;19.50;;;;;;;-0.36;95.62;95899.91;2042465;29;20060;-62
2022/12/05 01:23:36;;;;;;;56.40;19.90;;;;;;;-0.32;95.97;95897.34;2042534;29;20060;-62
2022/12/05 01:24:37;;;;;;;44.20;18.88;;;;;;;-0.30;95.62;95899.84;2041979;29;20488;-62
2022/12/05 01:25:42;;;;;;;57.72;20.35;;;;;;;-0.32;95.74;95907.53;2043137;29;20047;-62
2022/12/05 01:26:43;;;;;;;48.45;19.08;;;;;;;-0.32;96.11;95912.66;2042132;29;20047;-56
2022/12/05 01:27:44;;;;;;;53.03;20.23;;;;;;;-0.34;95.43;95916.91;2042693;29;20446;-56
2022/12/05 01:28:45;;;;;;;55.40;19.88;;;;;;;-0.33;96.14;95928.78;2042448;29;20060;-57
2022/12/05 01:29:46;;;;;;;51.53;20.02;;;;;;;-0.28;95.67;95926.22;2042872;29;20043;-56
2022/12/05 01:30:48;;;;;;;52.63;20.48;;;;;;;-0.30;95.49;95936.44;2042680;29;20082;-56
2022/12/05 01:31:49;;;;;;;55.17;19.88;;;;;;;-0.35;95.72;95927.09;2042957;29;20044;-56
2022/12/05 01:32:50;;;;;;;52.58;20.75;;;;;;;-0.27;95.49;95926.22;2042824;29;20047;-56
2022/12/05 01:33:52;;;;;;;50.30;19.15;;;;;;;-0.39;95.54;95910.13;2042640;29;20083;-55
2022/12/05 01:34:53;;;;;;;59.92;21.40;;;;;;;-0.38;95.92;95919.47;2042816;29;20051;-56
2022/12/05 01:35:54;;;;;;;57.03;21.25;;;;;;;-0.34;95.67;95927.09;2042787;29;20060;-55
2022/12/05 01:36:56;;;;;;;54.28;21.20;;;;;;;-0.28;96.53;95932.16;2042453;29;20056;-59
2022/12/05 01:37:57;;;;;;;61.05;22.65;;;;;;;-0.29;96.05;95921.97;2042552;29;20154;-60
2022/12/05 01:38:58;;;;;;;58.70;22.40;;;;;;;-0.38;96.23;95905.00;2042924;29;20070;-59
2022/12/05 01:39:59;;;;;;;54.63;19.83;;;;;;;-0.26;96.21;95914.31;2042701;29;20043;-60
2022/12/05 01:41:04;;;;;;;60.55;21.42;;;;;;;-0.27;96.23;95908.38;2042788;29;20051;-59
2022/12/05 01:42:05;;;;;;;57.90;21.35;;;;;;;-0.33;96.09;95904.97;2042062;29;20504;-59
2022/12/05 01:43:14;;;;;;;59.30;21.98;;;;;;;-0.34;96.08;95904.16;2042859;29;20044;-60
2022/12/05 01:44:15;;;;;;;57.40;22.05;;;;;;;-0.26;96.03;95930.47;2041839;29;20157;-59
2022/12/05 01:45:21;;;;;;;55.08;22.58;;;;;;;-0.28;96.29;95933.88;2042054;29;20545;-59
2022/12/05 01:46:23;;;;;;;59.40;21.45;;;;;;;-0.34;96.29;95923.72;2041450;29;20052;-59
2022/12/05 01:47:24;;;;;;;55.15;21.25;;;;;;;-0.26;95.80;95943.22;2041955;29;20070;-59
2022/12/05 01:48:28;;;;;;;52.55;21.08;;;;;;;-0.24;96.17;95944.06;2034261;29;20468;-59
2022/12/05 01:49:34;;;;;;;57.50;22.92;;;;;;;-0.22;95.78;95951.69;2035183;29;20048;-59
2022/12/05 01:50:35;;;;;;;61.05;22.38;;;;;;;-0.23;96.37;95953.41;2041083;29;20063;-59
2022/12/05 01:51:37;;;;;;;67.97;22.63;;;;;;;-0.32;96.14;95947.50;2034089;29;20187;-59
2022/12/05 01:52:38;;;;;;;61.63;23.60;;;;;;;-0.34;96.26;95950.06;2034216;29;20060;-59
2022/12/05 01:53:40;;;;;;;64.88;23.33;;;;;;;-0.34;95.96;95944.97;2033917;29;20059;-59
2022/12/05 01:54:41;;;;;;;66.05;24.02;;;;;;;-0.35;96.01;95945.81;2040742;29;20438;-59
2022/12/05 01:55:42;;;;;;;59.72;23.88;;;;;;;-0.35;96.25;95952.63;2033917;29;20056;-59
2022/12/05 01:56:47;;;;;;;67.32;25.48;;;;;;;-0.36;96.67;95946.69;2034389;29;20044;-60
2022/12/05 01:57:48;;;;;;;69.90;24.70;;;;;;;-0.37;96.47;95950.09;2041540;29;20063;-60
2022/12/05 01:58:49;;;;;;;65.20;25.20;;;;;;;-0.34;96.10;95950.06;2041979;29;20048;-59
2022/12/05 01:59:54;;;;;;;61.40;25.48;;;;;;;-0.30;96.50;95949.19;2041703;29;20063;-60
2022/12/05 02:00:55;;;;;;;65.75;25.45;;;;;;;-0.30;96.20;95961.09;2041846;29;20040;-60
2022/12/05 02:01:56;;;;;;;66.63;24.52;;;;;;;-0.29;96.64;95966.22;2042073;29;20040;-60
2022/12/05 02:03:00;;;;;;;72.20;25.38;;;;;;;-0.34;96.17;95962.00;2041426;29;20064;-60
2022/12/05 02:04:01;;;;;;;69.15;26.15;;;;;;;-0.29;96.06;95968.75;2041579;29;20039;-60
2022/12/05 02:05:04;;;;;;;63.65;24.00;;;;;;;-0.31;96.80;95964.53;2041723;29;20522;-60
2022/12/05 02:06:05;;;;;;;70.20;25.75;;;;;;;-0.29;96.43;95965.38;2042415;29;20074;-60
2022/12/05 02:07:07;;;;;;;68.25;25.67;;;;;;;-0.22;96.39;95964.47;2042105;29;20063;-60
2022/12/05 02:08:09;;;;;;;70.43;25.67;;;;;;;-0.25;96.40;95967.03;2041941;29;20070;-60
2022/12/05 02:09:10;;;;;;;62.38;24.67;;;;;;;-0.25;96.67;95977.25;2042569;29;20048;-60
2022/12/05 02:10:11;;;;;;;59.30;25.00;;;;;;;-0.32;96.15;95978.13;2041923;29;20060;-60
2022/12/05 02:11:12;;;;;;;62.60;25.05;;;;;;;-0.29;96.43;95984.06;2042385;29;20055;-60
2022/12/05 02:12:13;;;;;;;55.55;23.52;;;;;;;-0.29;96.09;95986.63;2042776;29;20063;-59
2022/12/05 02:13:37;;;;;;;60.33;23.88;;;;;;;-0.33;96.42;95991.75;2042211;29;20052;-59
2022/12/05 02:14:53;;;;;;;63.80;24.17;;;;;;;-0.33;96.29;95992.59;2041971;29;20048;-59
2022/12/05 02:16:16;;;;;;;60.13;23.30;;;;;;;-0.35;96.11;95978.97;2042575;29;20051;-60
2022/12/05 02:17:42;;;;;;;56.85;23.45;;;;;;;-0.33;96.33;95982.38;2042633;29;20424;-60
2022/12/05 02:18:57;;;;;;;61.50;23.25;;;;;;;-0.38;96.35;95956.03;2042460;29;20062;-59
2022/12/05 02:20:42;;;;;;;60.00;24.30;;;;;;;-0.41;96.28;95966.25;2041597;29;20051;-59
2022/12/05 02:21:54;;;;;;;57.45;23.33;;;;;;;-0.37;96.29;95985.81;2016829;29;20049;-59
2022/12/05 02:23:25;;;;;;;53.92;23.00;;;;;;;-0.42;96.34;95984.16;2041195;29;20048;-60
2022/12/05 02:24:53;;;;;;;62.13;22.83;;;;;;;-0.40;96.14;95996.03;2029871;29;20060;-59
2022/12/05 02:26:15;;;;;;;59.05;21.58;;;;;;;-0.41;96.57;95991.78;2037956;29;20044;-59
2022/12/05 02:27:16;;;;;;;54.40;21.88;;;;;;;-0.42;96.57;95977.34;2041572;29;20048;-59
2022/12/05 02:28:52;;;;;;;50.80;22.45;;;;;;;-0.46;96.54;95983.28;2041957;29;20052;-59
2022/12/05 02:30:07;;;;;;;54.17;20.70;;;;;;;-0.43;96.16;95984.97;2041119;29;20052;-59
2022/12/05 02:31:35;;;;;;;52.67;22.23;;;;;;;-0.50;96.60;95979.91;2030036;29;20062;-60
2022/12/05 02:33:00;;;;;;;56.05;21.65;;;;;;;-0.39;96.46;95982.41;2033277;29;20048;-60
2022/12/05 02:34:05;;;;;;;55.05;22.00;;;;;;;-0.52;96.18;95970.56;2043170;29;20044;-59
2022/12/05 02:35:32;;;;;;;50.15;20.58;;;;;;;-0.48;96.59;95998.63;2041377;29;20070;-60
2022/12/05 02:36:39;;;;;;;46.80;20.05;;;;;;;-0.45;96.34;96002.88;2037233;29;20052;-55
2022/12/05 02:37:58;;;;;;;52.45;20.63;;;;;;;-0.48;95.95;96008.00;2034915;29;20048;-56
2022/12/05 02:39:11;;;;;;;46.85;20.85;;;;;;;-0.47;96.05;96005.41;2035955;29;20056;-56
2022/12/05 02:40:24;;;;;;;51.10;21.75;;;;;;;-0.49;96.12;96001.16;2041883;29;20063;-57
2022/12/05 02:41:39;;;;;;;46.78;20.55;;;;;;;-0.54;96.38;95988.41;2042423;29;20129;-55
2022/12/05 02:42:44;;;;;;;49.90;20.83;;;;;;;-0.49;96.25;96008.81;2034024;29;20083;-56
2022/12/05 02:43:47;;;;;;;47.80;21.05;;;;;;;-0.45;96.42;96001.16;2019897;29;20061;-56
2022/12/05 02:44:55;;;;;;;43.75;19.90;;;;;;;-0.57;95.93;95992.69;2026637;29;20044;-56
2022/12/05 02:45:57;;;;;;;47.97;19.30;;;;;;;-0.44;95.85;96007.09;2026512;29;20075;-56
2022/12/05 02:46:58;;;;;;;46.10;20.77;;;;;;;-0.49;95.96;96011.38;2026445;29;20055;-63
2022/12/05 02:47:59;;;;;;;49.72;20.52;;;;;;;-0.62;95.92;95995.25;2041113;29;20062;-63
2022/12/05 02:49:04;;;;;;;43.05;18.50;;;;;;;-0.56;95.68;96007.13;2041641;29;20047;-62
2022/12/05 02:50:06;;;;;;;43.75;20.25;;;;;;;-0.57;95.60;95995.25;2026127;29;20067;-62
2022/12/05 02:51:07;;;;;;;44.47;20.05;;;;;;;-0.51;95.72;96007.97;2026038;29;20517;-62
2022/12/05 02:52:10;;;;;;;41.63;19.35;;;;;;;-0.58;95.74;95988.47;2034086;29;20059;-60
2022/12/05 02:53:12;;;;;;;42.28;18.67;;;;;;;-0.49;95.65;96001.16;2033727;29;20056;-60
2022/12/05 02:54:15;;;;;;;44.45;20.45;;;;;;;-0.60;95.28;95997.81;2033548;29;20444;-60
2022/12/05 02:55:16;;;;;;;47.45;20.40;;;;;;;-0.53;95.76;96007.16;2033499;29;20052;-60
2022/12/05 02:56:17;;;;;;;42.90;19.17;;;;;;;-0.49;95.96;96009.66;2033001;29;20563;-60
2022/12/05 02:57:19;;;;;;;45.58;19.40;;;;;;;-0.52;95.39;96007.13;2033528;29;20056;-56
2022/12/05 02:58:26;;;;;;;46.72;19.48;;;;;;;-0.53;95.87;96009.72;2033766;29;20062;-56
2022/12/05 02:59:27;;;;;;;37.33;16.38;;;;;;;-0.52;95.92;96016.50;2041513;29;20066;-56
2022/12/05 03:00:28;;;;;;;42.70;18.85;;;;;;;-0.52;95.28;96017.34;2041874;29;20055;-56
2022/12/05 03:01:30;;;;;;;43.13;18.88;;;;;;;-0.52;95.59;96021.59;2041942;29;20055;-55
2022/12/05 03:02:32;;;;;;;45.22;18.73;;;;;;;-0.53;95.60;96014.81;2040719;29;20074;-56
2022/12/05 03:03:33;;;;;;;37.90;17.38;;;;;;;-0.59;95.54;96007.16;2041301;29;20389;-56
2022/12/05 03:04:34;;;;;;;35.72;16.92;;;;;;;-0.54;95.21;96018.19;2041597;29;20039;-55
2022/12/05 03:05:39;;;;;;;36.63;16.02;;;;;;;-0.56;95.27;96018.22;2041618;29;20071;-56
2022/12/05 03:06:44;;;;;;;39.53;17.55;;;;;;;-0.53;95.35;96014.81;2024827;29;20064;-56
2022/12/05 03:07:46;;;;;;;41.25;17.58;;;;;;;-0.54;95.19;96024.13;2026944;29;20056;-54
2022/12/05 03:08:50;;;;;;;42.20;18.35;;;;;;;-0.65;95.79;96004.63;2033620;29;20043;-54
2022/12/05 03:09:55;;;;;;;42.55;17.85;;;;;;;-0.55;95.48;96014.81;2033841;29;20405;-55
2022/12/05 03:10:56;;;;;;;39.08;18.08;;;;;;;-0.64;95.73;95994.44;2033005;29;20456;-56
2022/12/05 03:12:12;;;;;;;41.40;18.20;;;;;;;-0.52;95.58;96014.78;2033468;29;20052;-60
2022/12/05 03:13:22;;;;;;;43.60;18.42;;;;;;;-0.59;96.20;96000.34;2041366;29;20036;-60
2022/12/05 03:14:26;;;;;;;44.63;18.27;;;;;;;-0.48;95.87;96011.38;2034742;29;20059;-60
2022/12/05 03:15:33;;;;;;;39.45;17.40;;;;;;;-0.51;95.66;96020.72;2025472;29;20060;-60
2022/12/05 03:16:40;;;;;;;41.00;17.00;;;;;;;-0.57;95.93;96011.41;2034513;29;20063;-56
2022/12/05 03:17:52;;;;;;;46.47;18.38;;;;;;;-0.54;95.37;96003.72;2044888;29;20059;-56
2022/12/05 03:18:55;;;;;;;42.40;18.35;;;;;;;-0.47;96.16;96022.44;2043971;29;20443;-56
2022/12/05 03:20:11;;;;;;;45.65;18.33;;;;;;;-0.48;95.86;96023.28;2034161;29;20044;-56
2022/12/05 03:21:30;;;;;;;37.65;15.98;;;;;;;-0.61;95.90;96006.34;2035335;29;20048;-54
2022/12/05 03:22:37;;;;;;;39.13;17.38;;;;;;;-0.50;95.71;96028.38;2027772;29;20072;-56
2022/12/05 03:23:41;;;;;;;42.30;18.45;;;;;;;-0.52;96.17;96025.00;2035961;29;20052;-54
2022/12/05 03:24:43;;;;;;;44.33;18.27;;;;;;;-0.49;95.66;96034.34;2040790;29;20075;-56
2022/12/05 03:26:23;;;;;;;46.97;18.55;;;;;;;-0.51;96.04;96029.25;2041071;29;20062;-56
2022/12/05 03:27:29;;;;;;;42.40;17.48;;;;;;;-0.58;95.87;96030.13;2024243;29;20049;-56
2022/12/05 03:28:40;;;;;;;41.70;19.08;;;;;;;-0.50;96.54;96025.84;2041932;29;20428;-56
2022/12/05 03:29:57;;;;;;;49.80;19.23;;;;;;;-0.52;96.04;96019.03;2044178;29;20054;-56
2022/12/05 03:31:01;;;;;;;44.60;18.17;;;;;;;-0.48;96.70;96025.84;2027305;29;20508;-54
2022/12/05 03:32:32;;;;;;;43.38;18.45;;;;;;;-0.49;96.28;96035.19;2026458;29;20053;-56
2022/12/05 03:33:34;;;;;;;44.20;18.73;;;;;;;-0.53;96.40;96032.66;2037320;29;20056;-56
2022/12/05 03:34:44;;;;;;;45.63;18.25;;;;;;;-0.49;96.42;96044.53;2027198;29;20040;-56
2022/12/05 03:35:54;;;;;;;43.83;18.95;;;;;;;-0.47;96.88;96043.69;2035752;29;20413;-55
2022/12/05 03:36:55;;;;;;;48.58;18.75;;;;;;;-0.51;96.50;96036.91;2047936;29;20050;-56
2022/12/05 03:38:08;;;;;;;51.78;20.13;;;;;;;-0.45;96.68;96048.78;2033567;29;20404;-56
2022/12/05 03:39:28;;;;;;;47.83;19.40;;;;;;;-0.43;96.32;96036.84;2036586;29;20048;-56
2022/12/05 03:40:38;;;;;;;47.25;19.35;;;;;;;-0.37;96.46;96031.75;2040606;29;20066;-56
2022/12/05 03:42:02;;;;;;;49.67;21.38;;;;;;;-0.35;96.29;96039.38;2041554;29;20404;-59
2022/12/05 03:43:11;;;;;;;51.17;20.52;;;;;;;-0.40;96.26;96041.09;2041942;29;20050;-60
2022/12/05 03:44:17;;;;;;;46.80;18.33;;;;;;;-0.40;96.84;96052.19;2040736;29;20059;-59
2022/12/05 03:45:21;;;;;;;47.45;19.75;;;;;;;-0.34;96.75;96047.03;2033468;29;20059;-60
2022/12/05 03:46:28;;;;;;;44.72;20.38;;;;;;;-0.36;96.91;96045.34;2033949;29;20468;-60
2022/12/05 03:47:44;;;;;;;52.58;21.35;;;;;;;-0.33;97.00;96043.63;2026551;29;20059;-60
2022/12/05 03:48:47;;;;;;;48.88;19.60;;;;;;;-0.30;96.18;96046.16;2034862;29;20060;-60
2022/12/05 03:49:50;;;;;;;51.65;21.00;;;;;;;-0.35;96.47;96041.94;2040591;29;20056;-59
2022/12/05 03:50:52;;;;;;;49.78;19.90;;;;;;;-0.32;96.41;96050.44;2025321;29;20068;-60
2022/12/05 03:52:00;;;;;;;50.33;20.48;;;;;;;-0.32;96.35;96053.00;2025494;29;20055;-59
2022/12/05 03:53:04;;;;;;;53.72;21.52;;;;;;;-0.31;96.84;96054.69;2033875;29;20067;-60
2022/12/05 03:54:07;;;;;;;57.50;23.10;;;;;;;-0.29;96.65;96047.03;2034023;29;20039;-60
2022/12/05 03:55:08;;;;;;;52.92;22.70;;;;;;;-0.34;96.56;96041.09;2033127;29;20048;-59
2022/12/05 03:56:12;;;;;;;51.85;22.15;;;;;;;-0.30;97.00;96040.22;2025639;29;20053;-59
2022/12/05 03:57:22;;;;;;;52.20;21.80;;;;;;;-0.22;97.07;96049.53;2040522;29;20078;-60
2022/12/05 03:58:39;;;;;;;54.55;21.75;;;;;;;-0.18;96.73;96042.72;2040835;29;20130;-60
2022/12/05 03:59:45;;;;;;;55.05;20.70;;;;;;;-0.24;96.44;96035.09;2035579;29;20492;-60
2022/12/05 04:00:47;;;;;;;55.00;22.90;;;;;;;-0.25;96.66;96033.38;2026232;29;20061;-60
2022/12/05 04:01:48;;;;;;;56.28;22.70;;;;;;;-0.09;96.25;96052.03;2025568;29;20052;-59
2022/12/05 04:03:10;;;;;;;50.10;21.80;;;;;;;-0.15;96.60;96052.06;2025019;29;20071;-60
2022/12/05 04:04:18;;;;;;;56.97;22.98;;;;;;;-0.26;96.82;96042.75;2035845;29;20059;-60
2022/12/05 04:05:36;;;;;;;46.92;20.98;;;;;;;-0.23;96.50;96054.66;2033914;29;20067;-60
2022/12/05 04:06:38;;;;;;;50.70;20.13;;;;;;;-0.16;96.59;96050.34;2041266;29;20047;-59
2022/12/05 04:07:39;;;;;;;56.25;21.30;;;;;;;-0.20;96.83;96035.94;2040809;29;20817;-60
2022/12/05 04:08:50;;;;;;;53.40;22.08;;;;;;;-0.12;96.66;96039.28;2040751;29;20062;-60
2022/12/05 04:09:56;;;;;;;52.90;22.98;;;;;;;-0.11;96.55;96039.25;2033044;29;20063;-59
2022/12/05 04:11:00;;;;;;;55.10;22.70;;;;;;;-0.06;96.76;96044.34;2035288;29;20056;-60
2022/12/05 04:12:11;;;;;;;55.92;21.52;;;;;;;-0.02;96.79;96036.69;2032930;29;20415;-60
2022/12/05 04:13:17;;;;;;;57.10;22.00;;;;;;;0.03;96.77;96046.00;2034424;29;20051;-59
2022/12/05 04:14:23;;;;;;;52.40;21.92;;;;;;;-0.06;96.39;96047.75;2040200;29;20056;-60
2022/12/05 04:15:26;;;;;;;54.55;23.65;;;;;;;0.03;96.12;96040.91;2040351;29;20059;-60
2022/12/05 04:17:57;;;;;;;50.78;21.08;;;;;;;-0.05;96.41;96026.50;2040748;29;20063;-59
2022/12/05 04:19:02;;;;;;;52.92;22.67;;;;;;;0.05;96.43;96027.28;2043914;29;20533;-60
2022/12/05 04:21:37;;;;;;;50.67;21.75;;;;;;;0.11;96.11;96050.25;2031643;29;20055;-59
2022/12/05 04:22:38;;;;;;;49.78;21.45;;;;;;;0.13;96.04;96047.66;2031040;29;20052;-60
2022/12/05 04:23:39;;;;;;;55.67;22.83;;;;;;;0.14;95.99;96046.81;2028185;29;20056;-60
2022/12/05 04:26:08;;;;;;;46.25;20.35;;;;;;;0.16;96.07;96047.63;2043148;29;20411;-59
2022/12/05 04:27:16;;;;;;;;;;;;;;;0.13;95.81;96043.41;2039087;29;20062;-55
2022/12/05 04:28:26;;;;;;;44.83;18.52;;;;;;;0.20;96.04;96055.28;2043042;29;19925;-55
2022/12/05 04:29:30;;;;;;;47.15;20.83;;;;;;;0.18;95.95;96051.88;2043718;29;20043;-55
2022/12/05 04:30:50;;;;;;;50.10;21.08;;;;;;;0.17;96.17;96050.19;2051159;29;20067;-56
2022/12/05 04:31:52;;;;;;;47.40;19.63;;;;;;;0.20;95.88;96050.16;2043578;29;20039;-55
2022/12/05 04:32:55;;;;;;;47.97;20.67;;;;;;;0.22;96.06;96051.03;2030013;29;20063;-55
2022/12/05 04:34:05;;;;;;;49.97;21.83;;;;;;;0.12;95.72;96031.50;2035392;29;20048;-56
2022/12/05 04:35:15;;;;;;;46.25;21.13;;;;;;;0.15;95.80;96041.69;2043763;29;20046;-55
2022/12/05 04:36:27;;;;;;;46.22;21.15;;;;;;;0.17;96.03;96036.59;2037131;29;20056;-55
2022/12/05 04:37:29;;;;;;;57.42;22.52;;;;;;;0.15;95.74;96020.41;2030180;29;20067;-55
2022/12/05 04:38:52;;;;;;;53.78;22.30;;;;;;;0.20;95.53;96037.41;2029052;29;20057;-56
2022/12/05 04:39:57;;;;;;;51.95;21.20;;;;;;;0.23;95.73;96031.44;2043205;29;20472;-55
2022/12/05 04:41:01;;;;;;;46.40;21.05;;;;;;;0.18;95.57;96021.22;2043558;29;20051;-55
2022/12/05 04:42:07;;;;;;;48.58;20.92;;;;;;;0.33;95.23;96042.44;2028659;29;20052;-56
2022/12/05 04:43:08;;;;;;;49.25;19.90;;;;;;;0.32;95.71;96041.59;2029311;29;20048;-56
2022/12/05 04:44:11;;;;;;;45.30;21.25;;;;;;;0.22;95.15;96016.97;2027982;29;20060;-55
2022/12/05 04:45:13;;;;;;;47.60;20.67;;;;;;;0.34;95.42;96036.47;2035725;29;20048;-55
2022/12/05 04:46:15;;;;;;;49.17;21.50;;;;;;;0.32;95.35;96038.19;2043204;29;20063;-55
2022/12/05 04:47:17;;;;;;;47.55;20.83;;;;;;;0.26;95.17;96028.00;2035865;29;20519;-55
2022/12/05 04:48:18;;;;;;;48.15;21.55;;;;;;;0.29;95.32;96033.09;2043533;29;20043;-55
2022/12/05 04:49:21;;;;;;;41.83;20.20;;;;;;;0.36;95.39;96040.72;2044114;29;20051;-56
2022/12/05 04:50:23;;;;;;;47.10;19.75;;;;;;;0.35;94.91;96033.91;2043723;29;20070;-55
2022/12/05 04:51:25;;;;;;;43.72;21.02;;;;;;;0.36;95.28;96021.97;2043445;29;20535;-55
2022/12/05 04:52:27;;;;;;;43.88;19.70;;;;;;;0.48;95.16;96047.44;2028036;29;20057;-56
2022/12/05 04:53:28;;;;;;;47.33;20.40;;;;;;;0.48;95.14;96049.13;2027055;29;20048;-55
2022/12/05 04:54:31;;;;;;;44.92;20.50;;;;;;;0.38;94.98;96038.16;2027951;29;20504;-56
2022/12/05 04:55:32;;;;;;;47.67;22.48;;;;;;;0.41;94.75;96036.41;2027950;29;20496;-55
2022/12/05 04:56:34;;;;;;;47.42;20.88;;;;;;;0.44;94.72;96048.31;2036056;29;20065;-56
2022/12/05 04:57:42;;;;;;;45.60;21.02;;;;;;;0.44;94.64;96043.22;2035775;29;20083;-55
2022/12/05 04:58:43;;;;;;;44.25;20.00;;;;;;;0.43;94.88;96046.63;2043326;29;20047;-54
2022/12/05 04:59:44;;;;;;;46.15;19.92;;;;;;;0.40;94.65;96021.09;2043391;29;20499;-55
2022/12/05 05:00:57;;;;;;;40.40;19.63;;;;;;;0.48;94.52;96037.22;2035202;29;20052;-56
2022/12/05 05:02:02;;;;;;;45.55;20.83;;;;;;;0.43;94.42;96044.09;2042985;29;20052;-55
2022/12/05 05:03:09;;;;;;;46.05;21.10;;;;;;;0.40;94.67;96039.84;2043424;29;20048;-55
2022/12/05 05:04:16;;;;;;;40.53;20.10;;;;;;;0.35;94.56;96038.19;2036133;29;20165;-56
2022/12/05 05:05:17;;;;;;;44.67;21.00;;;;;;;0.40;94.71;96039.84;2035979;29;20060;-55